Thunder radar more information blitzortung!


avis per Pluja more information rain snow radar


Visita la nostra xarxa de llocs de meteo:

Template documentation
and downloads

And another site



Rain From: 15-11-2018 14:00 Until: 23:59 warning for: Rain Level: Orange info button

Pagina Historial Weather Underground text

Diari Resum February 8, 2018 Unitats:  Imperial    Mètric   Tant
« Previous Dia
SegĂźent Dia »
Diari Setmana Mensual Anual Personalitzada
  Maxima: Minima: Media:
Temperatura: TemperatureF °F 30.2 °F 35.8 °F
Punt de rosada: DewpointF °F 17.6 °F 22.6 °F
Humitat: Humidity % 49 % 58 %
Wind Speed: WindSpeedMPH mph 0.0 mph 2.2 mph
RĂ fegues de vent: WindSpeedGustMPH mph - -
Vent:- - SE
Pression baro: PressureIn in 29.97 in -
Precipitacions: 0.00 in    
Historical Graphs
 
 
Dades de taula per February 8, 2018
Temps Temperatura Punt de rosada Pression baro Vent Wind Speed RĂ fegues de vent Humitat Rainfall Rate (Hourly)
TemperatureF °F DewpointF °F PressureIn in Calm     Humidity % HourlyPrecipIn in
00:01 37.2 °F 20.3 °F 30.00 in West 2.4 mph 2.4 mph 50 % 0.00 in
00:06 37.2 °F 20.3 °F 30.00 in NNE 2.3 mph 2.3 mph 50 % 0.00 in
00:11 37.0 °F 20.1 °F 30.00 in WNW 2.0 mph   50 % 0.00 in
00:16 36.9 °F 19.9 °F 30.00 in NW 2.6 mph   50 % 0.00 in
00:21 36.7 °F 19.8 °F 30.00 in NW 2.3 mph 2.3 mph 50 % 0.00 in
00:26 36.5 °F 19.6 °F 30.00 in SSE 1.2 mph   50 % 0.00 in
00:31 36.5 °F 19.6 °F 30.00 in WNW 1.2 mph   50 % 0.00 in
00:36 36.3 °F 19.4 °F 30.00 in West 1.2 mph 1.2 mph 50 % 0.00 in
00:41 36.0 °F 19.1 °F 30.00 in Calm     50 % 0.00 in
00:46 36.0 °F 19.1 °F 30.00 in WNW 2.3 mph 2.3 mph 50 % 0.00 in
00:51 35.8 °F 18.9 °F 30.00 in NNE 1.2 mph 1.4 mph 50 % 0.00 in
00:56 35.6 °F 19.2 °F 30.00 in WNW 1.2 mph   51 % 0.00 in
01:01 35.6 °F 19.2 °F 30.00 in ENE 1.4 mph   51 % 0.00 in
01:06 35.4 °F 19.1 °F 30.00 in NNW 1.2 mph 1.2 mph 51 % 0.00 in
01:11 35.4 °F 19.1 °F 30.00 in WNW 1.2 mph   51 % 0.00 in
01:16 35.2 °F 18.9 °F 30.00 in West 1.2 mph   51 % 0.00 in
01:21 35.2 °F 18.9 °F 30.00 in West 1.2 mph 1.2 mph 51 % 0.00 in
01:26 35.1 °F 18.7 °F 30.00 in West 2.3 mph 2.3 mph 51 % 0.00 in
01:31 34.9 °F 18.6 °F 30.00 in WSW 1.2 mph 1.4 mph 51 % 0.00 in
01:36 35.1 °F 18.7 °F 30.00 in West 2.3 mph 2.3 mph 51 % 0.00 in
01:41 35.1 °F 18.7 °F 30.00 in West 1.2 mph 1.2 mph 51 % 0.00 in
01:46 34.7 °F 18.4 °F 30.00 in Calm     51 % 0.00 in
01:51 34.5 °F 18.2 °F 30.00 in West 1.6 mph   51 % 0.00 in
01:56 34.7 °F 18.4 °F 30.00 in West 1.2 mph 1.2 mph 51 % 0.00 in
02:01 34.7 °F 18.4 °F 30.00 in West 1.2 mph   51 % 0.00 in
02:06 34.9 °F 18.6 °F 30.00 in ENE 2.3 mph 2.3 mph 51 % 0.00 in
02:11 34.7 °F 18.4 °F 30.00 in ENE 2.3 mph 2.3 mph 51 % 0.00 in
02:16 34.3 °F 18.5 °F 29.97 in NNE 1.4 mph   52 % 0.00 in
02:21 34.3 °F 18.5 °F 29.97 in NNE 1.4 mph 1.4 mph 52 % 0.00 in
02:26 34.2 °F 18.3 °F 29.97 in NNE 2.3 mph 2.3 mph 52 % 0.00 in
02:31 34.2 °F 18.3 °F 30.00 in NNE 1.2 mph   52 % 0.00 in
02:36 34.0 °F 18.2 °F 30.00 in Calm     52 % 0.00 in
02:41 33.8 °F 18.0 °F 30.00 in WNW 1.2 mph 1.2 mph 52 % 0.00 in
02:46 33.6 °F 17.8 °F 30.00 in Calm     52 % 0.00 in
02:51 33.4 °F 17.7 °F 30.00 in Calm     52 % 0.00 in
02:56 33.4 °F 17.7 °F 30.00 in Calm     52 % 0.00 in
03:01 33.3 °F 18.0 °F 30.00 in Calm     53 % 0.00 in
03:06 33.1 °F 17.8 °F 30.00 in WSW 2.2 mph 2.2 mph 53 % 0.00 in
03:11 32.9 °F 17.6 °F 30.00 in WSW 1.4 mph 1.4 mph 53 % 0.00 in
03:16 33.1 °F 17.8 °F 29.97 in West 2.3 mph 2.3 mph 53 % 0.00 in
03:21 33.1 °F 17.8 °F 29.97 in South 1.2 mph   53 % 0.00 in
03:26 33.1 °F 17.8 °F 29.97 in WNW 1.2 mph 1.2 mph 53 % 0.00 in
03:31 33.1 °F 17.8 °F 30.00 in WNW 1.6 mph 1.6 mph 53 % 0.00 in
03:36 33.1 °F 17.8 °F 30.00 in West 2.3 mph 2.3 mph 53 % 0.00 in
03:41 32.9 °F 18.1 °F 30.00 in WNW 1.6 mph 1.6 mph 54 % 0.00 in
03:46 32.7 °F 17.9 °F 30.00 in West 1.2 mph   54 % 0.00 in
03:51 32.7 °F 17.9 °F 30.00 in NW 2.3 mph 2.3 mph 54 % 0.00 in
03:56 32.7 °F 17.9 °F 30.00 in NW 1.2 mph 1.2 mph 54 % 0.00 in
04:01 32.7 °F 17.9 °F 30.00 in ENE 3.5 mph 3.5 mph 54 % 0.00 in
04:06 32.7 °F 18.3 °F 30.00 in Calm     55 % 0.00 in
04:11 32.5 °F 18.1 °F 30.00 in Calm     55 % 0.00 in
04:16 32.4 °F 18.0 °F 29.97 in Calm     55 % 0.00 in
04:21 32.4 °F 18.0 °F 29.97 in WNW 1.2 mph 1.4 mph 55 % 0.00 in
04:26 32.4 °F 18.0 °F 29.97 in WNW 2.0 mph   55 % 0.00 in
04:31 32.4 °F 18.0 °F 30.00 in WNW 1.2 mph 1.2 mph 55 % 0.00 in
04:36 32.4 °F 18.0 °F 30.00 in Calm     55 % 0.00 in
04:41 32.4 °F 18.0 °F 30.00 in West 2.3 mph 2.3 mph 55 % 0.00 in
04:46 32.4 °F 18.0 °F 30.00 in WSW 2.3 mph 2.3 mph 55 % 0.00 in
04:51 32.0 °F 18.1 °F 30.00 in WSW 2.0 mph 2.0 mph 56 % 0.00 in
04:56 32.0 °F 18.1 °F 30.00 in WSW 1.2 mph 1.2 mph 56 % 0.00 in
05:01 31.8 °F 17.9 °F 30.00 in Calm     56 % 0.00 in
05:06 31.6 °F 18.1 °F 30.00 in Calm     57 % 0.00 in
05:11 31.6 °F 18.1 °F 30.00 in Calm     57 % 0.00 in
05:16 31.8 °F 18.3 °F 30.00 in Calm     57 % 0.00 in
05:21 31.6 °F 18.1 °F 30.00 in WSW 2.0 mph   57 % 0.00 in
05:26 31.5 °F 18.0 °F 30.00 in WSW 1.4 mph 1.4 mph 57 % 0.00 in
05:31 31.6 °F 18.1 °F 30.00 in WSW 1.2 mph 1.4 mph 57 % 0.00 in
05:36 31.6 °F 18.5 °F 30.00 in Calm     58 % 0.00 in
05:41 31.3 °F 18.2 °F 30.00 in WSW 1.2 mph 1.4 mph 58 % 0.00 in
05:46 31.3 °F 18.6 °F 30.00 in WSW 1.2 mph   59 % 0.00 in
05:51 31.5 °F 18.8 °F 30.00 in NNE 2.0 mph 2.0 mph 59 % 0.00 in
05:56 31.5 °F 18.8 °F 30.00 in NE 1.6 mph 1.6 mph 59 % 0.00 in
06:01 31.5 °F 18.8 °F 30.00 in WNW 1.6 mph   59 % 0.00 in
06:06 31.5 °F 18.8 °F 30.00 in ENE 1.4 mph   59 % 0.00 in
06:11 31.6 °F 18.9 °F 30.00 in NNE 2.6 mph 2.6 mph 59 % 0.00 in
06:16 31.6 °F 18.9 °F 30.00 in WNW 2.3 mph 2.3 mph 59 % 0.00 in
06:21 31.6 °F 18.9 °F 30.00 in WNW 2.3 mph 2.3 mph 59 % 0.00 in
06:26 31.5 °F 18.8 °F 30.00 in Calm     59 % 0.00 in
06:31 31.3 °F 18.6 °F 30.00 in North 1.4 mph   59 % 0.00 in
06:36 31.3 °F 18.6 °F 30.00 in North 2.3 mph 2.3 mph 59 % 0.00 in
06:41 31.3 °F 19.0 °F 30.00 in NNE 1.2 mph 1.2 mph 60 % 0.00 in
06:46 31.3 °F 19.0 °F 30.00 in Calm     60 % 0.00 in
06:51 31.1 °F 18.8 °F 30.00 in West 2.3 mph 2.3 mph 60 % 0.00 in
06:56 31.1 °F 18.8 °F 30.00 in NE 2.9 mph 2.9 mph 60 % 0.00 in
07:01 31.1 °F 18.8 °F 29.97 in NNW 1.2 mph   60 % 0.00 in
07:06 30.9 °F 18.7 °F 29.97 in ENE 1.2 mph   60 % 0.00 in
07:11 30.9 °F 18.7 °F 29.97 in South 2.3 mph   60 % 0.00 in
07:16 30.9 °F 18.7 °F 30.00 in Calm     60 % 0.00 in
07:21 30.7 °F 18.9 °F 30.00 in WNW 2.3 mph 2.3 mph 61 % 0.00 in
07:26 30.6 °F 18.7 °F 30.00 in NNE 2.3 mph 2.3 mph 61 % 0.00 in
07:31 30.9 °F 19.0 °F 29.97 in NE 2.3 mph 2.3 mph 61 % 0.00 in
07:36 30.9 °F 19.0 °F 29.97 in WNW 1.2 mph   61 % 0.00 in
07:41 30.9 °F 19.0 °F 29.97 in NNW 2.3 mph 2.3 mph 61 % 0.00 in
07:46 30.7 °F 18.9 °F 30.00 in Calm     61 % 0.00 in
07:51 30.6 °F 18.7 °F 30.00 in WNW 1.2 mph 1.2 mph 61 % 0.00 in
07:56 30.6 °F 18.7 °F 30.00 in ENE 1.2 mph   61 % 0.00 in
08:01 30.6 °F 18.7 °F 30.00 in Calm     61 % 0.00 in
08:06 30.2 °F 18.7 °F 30.00 in West 0.9 mph   62 % 0.00 in
08:11 30.6 °F 19.1 °F 30.00 in ENE 2.3 mph 2.3 mph 62 % 0.00 in
08:16 30.6 °F 19.1 °F 30.03 in WNW 1.4 mph 1.4 mph 62 % 0.00 in
08:21 30.6 °F 19.1 °F 30.03 in WNW 2.0 mph 2.0 mph 62 % 0.00 in
08:26 30.9 °F 19.4 °F 30.03 in Calm     62 % 0.00 in
08:31 31.1 °F 19.6 °F 30.00 in Calm     62 % 0.00 in
08:36 30.9 °F 19.4 °F 30.00 in WSW 2.3 mph 2.3 mph 62 % 0.00 in
08:41 30.7 °F 19.2 °F 30.00 in WSW 2.0 mph 2.0 mph 62 % 0.00 in
08:46 30.7 °F 19.2 °F 30.00 in WSW 2.3 mph 2.3 mph 62 % 0.00 in
08:51 30.7 °F 19.2 °F 30.00 in Calm     62 % 0.00 in
08:56 30.9 °F 19.4 °F 30.00 in SSE 1.2 mph   62 % 0.00 in
09:01 31.5 °F 19.9 °F 30.00 in NNE 2.3 mph 2.3 mph 62 % 0.00 in
09:06 31.6 °F 20.1 °F 30.00 in NE 2.3 mph 2.3 mph 62 % 0.00 in
09:11 31.6 °F 20.1 °F 30.00 in NNE 2.4 mph 2.4 mph 62 % 0.00 in
09:16 31.6 °F 20.1 °F 30.03 in WNW 1.2 mph 1.2 mph 62 % 0.00 in
09:21 31.6 °F 20.1 °F 30.03 in Calm     62 % 0.00 in
09:26 31.5 °F 19.9 °F 30.03 in Calm     62 % 0.00 in
09:31 31.5 °F 20.3 °F 30.03 in SW 1.2 mph   63 % 0.00 in
09:36 31.5 °F 19.9 °F 30.03 in SW 1.2 mph 1.4 mph 62 % 0.00 in
09:42 31.3 °F 19.8 °F 30.03 in SW 1.2 mph 1.2 mph 62 % 0.00 in
09:47 31.5 °F 20.3 °F 30.03 in Calm     63 % 0.00 in
09:52 31.5 °F 20.3 °F 30.03 in Calm     63 % 0.00 in
09:57 31.5 °F 20.3 °F 30.03 in Calm     63 % 0.00 in
10:02 31.5 °F 20.3 °F 30.03 in Calm     63 % 0.00 in
10:07 31.5 °F 20.3 °F 30.03 in Calm     63 % 0.00 in
10:12 31.5 °F 20.3 °F 30.03 in Calm     63 % 0.00 in
10:17 31.5 °F 20.3 °F 30.03 in Calm     63 % 0.00 in
10:22 31.5 °F 20.3 °F 30.03 in Calm     63 % 0.00 in
10:27 31.5 °F 20.3 °F 30.03 in Calm     63 % 0.00 in
10:32 31.5 °F 20.3 °F 30.03 in Calm     63 % 0.00 in
10:37 31.5 °F 20.3 °F 30.03 in Calm     63 % 0.00 in
10:42 31.5 °F 20.3 °F 30.03 in Calm     63 % 0.00 in
10:47 31.5 °F 20.3 °F 30.03 in Calm     63 % 0.00 in
10:52 31.5 °F 20.3 °F 30.03 in Calm     63 % 0.00 in
10:57 31.5 °F 20.3 °F 30.03 in Calm     63 % 0.00 in
11:02 31.5 °F 20.3 °F 30.03 in Calm     63 % 0.00 in
11:07 31.5 °F 20.3 °F 30.03 in Calm     63 % 0.00 in
11:12 31.5 °F 20.3 °F 30.03 in Calm     63 % 0.00 in
11:17 31.5 °F 20.3 °F 30.03 in Calm     63 % 0.00 in
11:22 31.5 °F 20.3 °F 30.03 in Calm     63 % 0.00 in
11:27 31.5 °F 20.3 °F 30.03 in Calm     63 % 0.00 in
11:32 31.5 °F 20.3 °F 30.03 in Calm     63 % 0.00 in
11:37 31.5 °F 20.3 °F 30.03 in Calm     63 % 0.00 in
11:42 39.9 °F 25.0 °F 30.06 in NE 4.6 mph 4.6 mph 55 % 0.00 in
11:47 40.3 °F 25.4 °F 30.06 in WNW 4.6 mph 4.6 mph 55 % 0.00 in
11:52 40.8 °F 25.9 °F 30.06 in WNW 2.3 mph 2.3 mph 55 % 0.00 in
11:57 42.1 °F 27.1 °F 30.06 in SSW 2.3 mph 2.3 mph 55 % 0.00 in
12:02 42.1 °F 26.6 °F 30.06 in WSW 5.8 mph 5.8 mph 54 % 0.00 in
12:07 42.4 °F 27.0 °F 30.06 in ENE 2.9 mph 2.9 mph 54 % 0.00 in
12:12 41.9 °F 26.0 °F 30.06 in ESE 2.4 mph 2.4 mph 53 % 0.00 in
12:17 42.1 °F 25.7 °F 30.06 in ESE 3.5 mph 3.5 mph 52 % 0.00 in
12:22 42.4 °F 26.0 °F 30.06 in South 4.6 mph 4.6 mph 52 % 0.00 in
12:27 42.4 °F 26.0 °F 30.03 in ENE 4.6 mph 4.6 mph 52 % 0.00 in
12:32 42.6 °F 26.2 °F 30.03 in NNE 3.6 mph 3.6 mph 52 % 0.00 in
12:37 42.6 °F 26.2 °F 30.03 in ENE 3.5 mph 3.5 mph 52 % 0.00 in
12:42 43.2 °F 26.7 °F 30.03 in ENE 3.5 mph 3.5 mph 52 % 0.00 in
12:47 43.2 °F 26.7 °F 30.03 in ENE 4.6 mph 4.6 mph 52 % 0.00 in
12:52 42.8 °F 26.4 °F 30.03 in ESE 2.3 mph 2.3 mph 52 % 0.00 in
12:57 43.7 °F 27.2 °F 30.00 in ENE 3.1 mph 3.1 mph 52 % 0.00 in
13:02 43.3 °F 26.4 °F 30.00 in SE 5.4 mph 5.4 mph 51 % 0.00 in
13:07 44.2 °F 27.2 °F 30.00 in South 4.6 mph 4.6 mph 51 % 0.00 in
13:12 43.7 °F 26.7 °F 30.00 in East 3.1 mph 3.1 mph 51 % 0.00 in
13:17 43.3 °F 26.4 °F 30.00 in ENE 2.3 mph 2.3 mph 51 % 0.00 in
13:22 43.2 °F 26.2 °F 30.00 in ENE 2.4 mph 2.4 mph 51 % 0.00 in
13:27 43.3 °F 26.4 °F 30.00 in East 5.8 mph 5.8 mph 51 % 0.00 in
13:32 43.7 °F 26.7 °F 30.00 in SSE 4.6 mph 4.6 mph 51 % 0.00 in
13:37 44.2 °F 27.2 °F 30.00 in East 4.6 mph 4.6 mph 51 % 0.00 in
13:42 43.7 °F 26.7 °F 30.00 in ESE 5.4 mph 5.4 mph 51 % 0.00 in
13:47 43.3 °F 25.9 °F 30.00 in ESE 6.0 mph 6.0 mph 50 % 0.00 in
13:52 43.3 °F 25.9 °F 30.00 in NNE 5.4 mph 5.4 mph 50 % 0.00 in
13:57 43.5 °F 26.6 °F 30.03 in NE 5.8 mph 5.8 mph 51 % 0.00 in
14:02 43.5 °F 25.6 °F 30.03 in ESE 5.8 mph 5.8 mph 49 % 0.00 in
14:07 44.1 °F 26.1 °F 30.03 in WSW 2.3 mph 2.3 mph 49 % 0.00 in
14:12 44.6 °F 26.6 °F 30.00 in ESE 4.6 mph 4.6 mph 49 % 0.00 in
14:17 44.6 °F 26.6 °F 30.00 in East 5.8 mph 5.8 mph 49 % 0.00 in
14:22 44.4 °F 26.4 °F 30.00 in ESE 5.8 mph 5.8 mph 49 % 0.00 in
14:27 44.8 °F 26.8 °F 30.00 in ESE 3.6 mph 3.6 mph 49 % 0.00 in
14:32 45.0 °F 26.9 °F 30.00 in East 6.0 mph 6.0 mph 49 % 0.00 in
14:37 44.4 °F 26.4 °F 30.00 in ESE 7.1 mph 7.1 mph 49 % 0.00 in
14:42 43.9 °F 26.9 °F 30.00 in ENE 9.2 mph 9.2 mph 51 % 0.00 in
14:47 42.8 °F 26.8 °F 30.00 in ESE 8.1 mph 8.1 mph 53 % 0.00 in
14:52 42.1 °F 27.1 °F 30.00 in ENE 10.4 mph 10.4 mph 55 % 0.00 in
14:57 42.3 °F 28.1 °F 30.00 in ESE 9.4 mph 9.4 mph 57 % 0.00 in
15:02 41.9 °F 28.2 °F 30.00 in ESE 8.1 mph 8.1 mph 58 % 0.00 in
15:07 41.7 °F 28.4 °F 30.00 in East 10.9 mph 10.9 mph 59 % 0.00 in
15:12 41.5 °F 28.7 °F 30.00 in ESE 8.1 mph 8.1 mph 60 % 0.00 in
15:17 41.5 °F 28.7 °F 30.00 in ESE 9.2 mph 9.2 mph 60 % 0.00 in
15:22 41.4 °F 28.9 °F 30.00 in ESE 11.5 mph 11.5 mph 61 % 0.00 in
15:27 41.0 °F 28.6 °F 30.00 in ENE 7.4 mph 7.4 mph 61 % 0.00 in
15:32 40.8 °F 28.4 °F 30.00 in ESE 5.8 mph 5.8 mph 61 % 0.00 in
15:37 40.6 °F 28.2 °F 30.00 in ENE 11.5 mph 11.5 mph 61 % 0.00 in
15:42 40.5 °F 28.1 °F 30.00 in East 6.9 mph 6.9 mph 61 % 0.00 in
15:47 40.8 °F 28.4 °F 30.00 in ENE 6.9 mph 6.9 mph 61 % 0.00 in
15:52 40.6 °F 28.2 °F 30.00 in NNE 6.9 mph 6.9 mph 61 % 0.00 in
15:57 40.6 °F 28.2 °F 30.00 in East 4.9 mph 4.9 mph 61 % 0.00 in
16:02 40.6 °F 28.2 °F 30.00 in East 4.6 mph 4.6 mph 61 % 0.00 in
16:07 40.6 °F 28.2 °F 30.00 in SE 3.5 mph 3.5 mph 61 % 0.00 in
16:12 40.5 °F 27.7 °F 30.00 in NE 6.4 mph 6.4 mph 60 % 0.00 in
16:17 40.6 °F 28.2 °F 30.00 in ENE 5.6 mph 5.6 mph 61 % 0.00 in
16:22 40.5 °F 28.1 °F 30.00 in ENE 5.8 mph 5.8 mph 61 % 0.00 in
16:27 40.5 °F 28.1 °F 30.00 in ESE 8.1 mph 8.1 mph 61 % 0.00 in
16:32 40.3 °F 27.9 °F 30.00 in ENE 7.4 mph 7.4 mph 61 % 0.00 in
16:37 40.1 °F 27.7 °F 30.00 in ENE 6.0 mph 6.0 mph 61 % 0.00 in
16:42 40.1 °F 27.7 °F 30.03 in East 6.9 mph 6.9 mph 61 % 0.00 in
16:47 39.9 °F 27.5 °F 30.03 in NE 4.6 mph 4.6 mph 61 % 0.00 in
16:52 39.9 °F 27.5 °F 30.03 in ENE 4.6 mph 4.6 mph 61 % 0.00 in
16:57 39.7 °F 27.8 °F 30.03 in NNE 4.7 mph 4.7 mph 62 % 0.00 in
17:02 39.7 °F 27.8 °F 30.03 in ENE 5.8 mph 5.8 mph 62 % 0.00 in
17:07 39.6 °F 27.6 °F 30.03 in NE 4.6 mph 4.6 mph 62 % 0.00 in
17:12 39.6 °F 27.6 °F 30.03 in NNE 4.6 mph 4.6 mph 62 % 0.00 in
17:17 39.6 °F 27.6 °F 30.03 in NW 4.6 mph 4.6 mph 62 % 0.00 in
17:22 39.4 °F 27.4 °F 30.03 in NE 3.5 mph 3.5 mph 62 % 0.00 in
17:27 39.4 °F 27.4 °F 30.03 in NNE 5.8 mph 5.8 mph 62 % 0.00 in
17:32 39.4 °F 27.4 °F 30.03 in NNE 3.5 mph 3.5 mph 62 % 0.00 in
17:37 39.4 °F 27.4 °F 30.03 in NNE 4.6 mph 4.6 mph 62 % 0.00 in
17:42 39.2 °F 27.3 °F 30.03 in NE 3.5 mph 3.5 mph 62 % 0.00 in
17:47 39.2 °F 27.3 °F 30.03 in NNE 3.5 mph 3.5 mph 62 % 0.00 in
17:52 39.0 °F 27.1 °F 30.03 in NNE 3.6 mph 3.6 mph 62 % 0.00 in
17:57 39.0 °F 27.1 °F 30.06 in ENE 3.8 mph 3.8 mph 62 % 0.00 in
18:02 39.0 °F 27.1 °F 30.06 in NE 2.3 mph 2.3 mph 62 % 0.00 in
18:07 39.0 °F 27.1 °F 30.06 in NNE 2.3 mph 2.3 mph 62 % 0.00 in
18:12 38.8 °F 26.9 °F 30.03 in East 2.3 mph 2.3 mph 62 % 0.00 in
18:17 38.8 °F 26.9 °F 30.03 in NE 1.6 mph 1.6 mph 62 % 0.00 in
18:22 38.8 °F 26.9 °F 30.03 in ENE 2.3 mph 2.3 mph 62 % 0.00 in
18:27 38.8 °F 26.9 °F 30.06 in ENE 2.3 mph 2.3 mph 62 % 0.00 in
18:32 38.8 °F 26.9 °F 30.06 in ENE 1.6 mph 1.6 mph 62 % 0.00 in
18:37 38.8 °F 26.9 °F 30.06 in NE 2.3 mph 2.3 mph 62 % 0.00 in
18:42 38.7 °F 26.8 °F 30.06 in Calm     62 % 0.00 in
18:47 38.7 °F 26.8 °F 30.06 in ENE 1.2 mph 1.2 mph 62 % 0.00 in
18:52 38.7 °F 26.8 °F 30.06 in ENE 1.2 mph 1.4 mph 62 % 0.00 in
18:57 38.7 °F 26.8 °F 30.06 in Calm     62 % 0.00 in
19:02 38.7 °F 26.8 °F 30.06 in Calm     62 % 0.00 in
19:07 38.7 °F 27.1 °F 30.06 in Calm     63 % 0.00 in
19:12 38.5 °F 27.0 °F 30.06 in Calm     63 % 0.00 in
19:17 38.7 °F 26.8 °F 30.06 in NE 2.3 mph 2.3 mph 62 % 0.00 in
19:22 38.7 °F 26.8 °F 30.06 in ENE 4.6 mph 4.6 mph 62 % 0.00 in
19:27 38.7 °F 27.1 °F 30.06 in ENE 2.4 mph 2.4 mph 63 % 0.00 in
19:32 38.7 °F 26.8 °F 30.06 in NNE 2.3 mph 2.3 mph 62 % 0.00 in
19:37 38.7 °F 26.8 °F 30.06 in ENE 3.5 mph 3.5 mph 62 % 0.00 in
19:42 38.7 °F 26.8 °F 30.06 in NE 2.3 mph 2.3 mph 62 % 0.00 in
19:47 38.7 °F 26.8 °F 30.06 in SSE 2.3 mph 2.3 mph 62 % 0.00 in
19:52 38.7 °F 26.8 °F 30.06 in Calm     62 % 0.00 in
19:57 38.5 °F 26.6 °F 30.06 in SSE 1.2 mph 1.2 mph 62 % 0.00 in
20:02 38.5 °F 27.0 °F 30.06 in Calm     63 % 0.00 in
20:07 38.3 °F 26.8 °F 30.06 in East 1.2 mph 1.4 mph 63 % 0.00 in
20:12 38.3 °F 26.8 °F 30.06 in NNE 3.5 mph 3.5 mph 63 % 0.00 in
20:17 38.3 °F 26.4 °F 30.06 in NNE 2.4 mph 2.4 mph 62 % 0.00 in
20:22 38.3 °F 26.4 °F 30.06 in NNE 2.3 mph 2.3 mph 62 % 0.00 in
20:27 38.1 °F 26.2 °F 30.06 in NNE 1.2 mph   62 % 0.00 in
20:32 37.9 °F 26.1 °F 30.06 in NNE 2.4 mph 2.4 mph 62 % 0.00 in
20:37 37.8 °F 25.9 °F 30.06 in NNE 2.3 mph 2.3 mph 62 % 0.00 in
20:42 37.4 °F 25.6 °F 30.06 in NNE 1.2 mph   62 % 0.00 in
20:47 37.2 °F 25.4 °F 30.06 in NE 1.2 mph 1.2 mph 62 % 0.00 in
20:52 37.0 °F 25.2 °F 30.06 in Calm     62 % 0.00 in
20:57 36.9 °F 25.0 °F 30.06 in NNE 1.2 mph   62 % 0.00 in
21:02 36.7 °F 24.9 °F 30.06 in NNE 1.2 mph 1.2 mph 62 % 0.00 in
21:07 36.3 °F 24.9 °F 30.06 in Calm     63 % 0.00 in
21:12 36.3 °F 24.9 °F 30.06 in Calm     63 % 0.00 in
21:17 36.0 °F 24.6 °F 30.06 in Calm     63 % 0.00 in
21:22 35.8 °F 24.8 °F 30.06 in Calm     64 % 0.00 in
21:27 35.6 °F 24.6 °F 30.06 in Calm     64 % 0.00 in
21:32 35.6 °F 24.6 °F 30.06 in Calm     64 % 0.00 in
21:37 35.4 °F 24.4 °F 30.06 in WNW 1.2 mph   64 % 0.00 in
21:43 35.2 °F 24.3 °F 30.06 in Calm     64 % 0.00 in
21:48 35.2 °F 24.3 °F 30.06 in NW 1.2 mph 1.2 mph 64 % 0.00 in
21:53 35.1 °F 24.1 °F 30.06 in Calm     64 % 0.00 in
21:58 34.9 °F 24.3 °F 30.06 in Calm     65 % 0.00 in
22:03 34.7 °F 24.1 °F 30.06 in Calm     65 % 0.00 in
22:07 34.7 °F 24.1 °F 30.06 in Calm     65 % 0.00 in
22:13 34.5 °F 24.0 °F 30.06 in Calm     65 % 0.00 in
22:18 34.3 °F 23.8 °F 30.06 in Calm     65 % 0.00 in
22:23 34.2 °F 23.6 °F 30.06 in Calm     65 % 0.00 in
22:28 34.0 °F 23.4 °F 30.03 in Calm     65 % 0.00 in
22:33 33.8 °F 23.3 °F 30.03 in Calm     65 % 0.00 in
22:38 33.8 °F 23.6 °F 30.03 in Calm     66 % 0.00 in
22:43 33.8 °F 23.6 °F 30.03 in Calm     66 % 0.00 in
22:48 34.0 °F 23.8 °F 30.03 in NW 1.2 mph   66 % 0.00 in
22:53 34.0 °F 24.2 °F 30.03 in Calm     67 % 0.00 in
22:58 34.0 °F 23.8 °F 30.03 in Calm     66 % 0.00 in
23:03 33.6 °F 23.5 °F 30.03 in Calm     66 % 0.00 in
23:08 33.4 °F 23.3 °F 30.03 in Calm     66 % 0.00 in
23:13 33.4 °F 23.7 °F 30.06 in Calm     67 % 0.00 in
23:18 33.3 °F 23.5 °F 30.06 in WNW 1.2 mph   67 % 0.00 in
23:23 33.3 °F 23.5 °F 30.06 in Calm     67 % 0.00 in
23:28 33.1 °F 23.3 °F 30.06 in WNW 1.2 mph   67 % 0.00 in
23:33 32.7 °F 23.0 °F 30.06 in WSW 2.3 mph 2.3 mph 67 % 0.00 in
23:38 32.5 °F 22.8 °F 30.06 in Calm     67 % 0.00 in
23:43 32.5 °F 23.1 °F 30.06 in WSW 1.4 mph   68 % 0.00 in
23:48 32.4 °F 23.0 °F 30.06 in WSW 2.3 mph 2.3 mph 68 % 0.00 in
23:53 32.2 °F 22.8 °F 30.06 in WSW 2.3 mph   68 % 0.00 in
23:58 32.0 °F 22.6 °F 30.06 in Calm     68 % 0.00 in
Meteo Sesrovires
Elogis d' Weather Underground - 1.75 mb

Guio original per  Jim McMurry - jmcmurry@mwt.net Adaptat per a la plantilla per  Wim van der Kuil - Leuven-Template.eu

Trobareu la nostra informacio del temps tambe a:

Weather Underground

AWEKAS